Time;durP1;ratioP1;P1;durP2;ratioP2;P2;SDS_P1;SDS_P2;PMS_P1;PMS_P2;Temp;Humidity;BMP_temperature;BMP_pressure;BME280_temperature;BME280_humidity;BME280_pressure;Samples;Min_cycle;Max_cycle;Signal;HPM_P1;HPM_P2
2023/02/02 00:01:54;;;;;;;1.10;0.65;;;;;;;21.27;32.67;101790.09;5055783;28;20523;-71
2023/02/02 00:04:26;;;;;;;1.80;1.27;;;;;;;21.25;32.61;101783.31;5055306;28;20032;-71
2023/02/02 00:06:52;;;;;;;0.70;0.70;;;;;;;21.25;32.61;101780.66;5056482;28;20512;-71
2023/02/02 00:09:19;;;;;;;1.15;0.90;;;;;;;21.25;32.58;101781.50;5054274;28;20045;-71
2023/02/02 00:11:47;;;;;;;1.25;1.08;;;;;;;21.18;32.64;101782.28;5055733;28;20036;-71
2023/02/02 00:14:13;;;;;;;1.25;1.15;;;;;;;21.21;32.69;101787.25;5057547;28;20052;-71
2023/02/02 00:16:48;;;;;;;1.10;0.90;;;;;;;21.16;32.82;101787.72;5058631;28;20094;-71
2023/02/02 00:19:26;;;;;;;0.77;0.57;;;;;;;21.17;32.99;101792.03;5056075;28;20131;-71
2023/02/02 00:21:53;;;;;;;0.98;0.85;;;;;;;21.13;33.01;101788.06;5056474;28;20044;-71
2023/02/02 00:24:19;;;;;;;1.10;0.90;;;;;;;21.12;32.92;101794.34;5054365;28;20045;-71
2023/02/02 00:26:47;;;;;;;1.17;0.82;;;;;;;21.11;32.89;101788.22;5056914;28;20024;-71
2023/02/02 00:29:21;;;;;;;1.42;0.90;;;;;;;21.11;33.05;101796.19;5057261;28;20052;-71
2023/02/02 00:31:48;;;;;;;0.90;0.80;;;;;;;21.10;33.02;101793.69;5057695;28;20709;-71
2023/02/02 00:34:14;;;;;;;1.30;0.70;;;;;;;21.08;32.97;101799.16;5057032;28;20052;-71
2023/02/02 00:36:41;;;;;;;0.98;0.90;;;;;;;21.03;33.09;101796.19;5057117;28;20149;-70
2023/02/02 00:39:08;;;;;;;1.63;1.00;;;;;;;21.09;33.03;101806.13;5056795;28;20035;-70
2023/02/02 00:41:33;;;;;;;0.95;0.75;;;;;;;21.10;32.81;101807.78;5057004;28;20050;-71
2023/02/02 00:46:43;;;;;;;1.17;1.08;;;;;;;21.06;32.89;101809.09;5057861;28;20066;-71
2023/02/02 00:49:09;;;;;;;1.20;1.05;;;;;;;21.04;33.00;101804.97;5046073;28;21004;-71
2023/02/02 00:51:36;;;;;;;1.20;0.73;;;;;;;21.02;32.97;101804.31;5057666;28;20231;-71
2023/02/02 00:54:02;;;;;;;1.50;1.20;;;;;;;20.98;33.29;101805.59;5053178;28;20102;-71
2023/02/02 00:56:28;;;;;;;0.88;0.88;;;;;;;20.98;33.14;101805.59;5056110;28;20045;-70
2023/02/02 00:58:54;;;;;;;1.13;0.98;;;;;;;20.98;33.06;101805.59;5055368;28;20075;-71
2023/02/02 01:01:21;;;;;;;1.15;0.95;;;;;;;20.99;33.20;101807.25;5059169;28;20052;-70
2023/02/02 01:03:47;;;;;;;1.50;1.10;;;;;;;20.93;33.26;101808.75;5076872;28;20032;-71
2023/02/02 01:06:13;;;;;;;0.98;0.50;;;;;;;20.97;33.01;101814.53;5057771;28;20039;-71
2023/02/02 01:08:39;;;;;;;1.50;1.00;;;;;;;21.02;33.09;101818.38;5059839;28;20411;-71
2023/02/02 01:11:05;;;;;;;1.30;0.77;;;;;;;20.99;33.13;101823.97;5060730;28;20101;-71
2023/02/02 01:13:31;;;;;;;1.48;0.80;;;;;;;20.98;33.13;101819.66;5055052;28;20072;-71
2023/02/02 01:15:57;;;;;;;1.90;1.17;;;;;;;20.94;33.17;101812.22;5057453;28;20987;-71
2023/02/02 01:18:25;;;;;;;0.60;0.52;;;;;;;20.90;33.40;101818.84;5056299;28;20064;-71
2023/02/02 01:21:03;;;;;;;1.13;1.02;;;;;;;20.97;33.34;101825.13;5062005;28;20111;-71
2023/02/02 01:23:29;;;;;;;1.48;1.10;;;;;;;20.93;32.96;101821.16;5055927;28;20035;-71
2023/02/02 01:25:59;;;;;;;1.40;0.98;;;;;;;20.91;33.20;101815.19;5061460;28;21614;-71
2023/02/02 01:28:26;;;;;;;1.02;0.80;;;;;;;20.97;33.23;101823.31;5060975;28;20619;-71
2023/02/02 01:30:53;;;;;;;0.73;0.73;;;;;;;20.99;32.99;101834.56;5060060;28;20085;-71
2023/02/02 01:33:21;;;;;;;1.38;0.82;;;;;;;20.92;33.29;101822.16;5055420;28;20033;-71
2023/02/02 01:35:51;;;;;;;0.73;0.68;;;;;;;20.91;33.18;101834.56;5059813;28;20963;-71
2023/02/02 01:38:18;;;;;;;0.95;0.93;;;;;;;20.80;33.27;101819.78;5059072;28;20055;-70
2023/02/02 01:40:52;;;;;;;1.33;0.80;;;;;;;20.90;33.35;101834.72;5052321;28;20035;-70
2023/02/02 01:43:25;;;;;;;1.48;0.80;;;;;;;20.83;33.35;101839.84;5060366;28;20131;-71
2023/02/02 01:45:52;;;;;;;1.48;0.90;;;;;;;20.91;33.28;101846.97;5052003;28;20531;-71
2023/02/02 01:48:30;;;;;;;1.30;1.08;;;;;;;20.80;33.31;101835.69;5060532;28;20948;-71
2023/02/02 01:51:00;;;;;;;1.13;0.93;;;;;;;20.88;33.21;101850.78;5060253;28;20165;-71
2023/02/02 01:53:27;;;;;;;0.98;0.80;;;;;;;20.89;33.29;101855.06;5057966;28;20863;-71
2023/02/02 01:55:54;;;;;;;1.13;0.68;;;;;;;20.90;33.43;101850.59;5057633;28;20085;-71
2023/02/02 01:58:27;;;;;;;0.95;0.90;;;;;;;20.83;33.37;101855.72;5055736;28;20047;-71
2023/02/02 02:00:53;;;;;;;0.50;0.50;;;;;;;20.75;33.59;101853.88;5072744;28;20504;-71
2023/02/02 02:03:24;;;;;;;1.20;0.70;;;;;;;20.79;33.56;101854.38;5070884;28;22474;-71
2023/02/02 02:05:55;;;;;;;0.80;0.70;;;;;;;20.81;33.36;101847.09;5057626;28;20081;-71
2023/02/02 02:08:25;;;;;;;0.77;0.63;;;;;;;20.79;33.67;101844.59;5056958;28;20489;-71
2023/02/02 02:10:53;;;;;;;0.93;0.80;;;;;;;20.76;33.64;101846.75;5058008;28;20028;-71
2023/02/02 02:13:21;;;;;;;1.05;0.90;;;;;;;20.79;33.41;101835.84;5058459;28;20037;-71
2023/02/02 02:16:21;;;;;;;0.77;0.77;;;;;;;20.85;33.55;101839.69;5054703;28;20076;-71
2023/02/02 02:19:10;;;;;;;1.25;1.00;;;;;;;20.75;33.42;101842.44;5060914;28;20035;-71
2023/02/02 02:27:50;;;;;;;1.08;0.90;;;;;;;20.82;33.29;101838.16;5054285;28;20079;-71
2023/02/02 02:31:01;;;;;;;1.20;0.90;;;;;;;20.77;33.53;101845.75;5058845;28;20078;-71
2023/02/02 02:33:45;;;;;;;1.42;0.77;;;;;;;20.75;33.44;101832.69;5048800;28;20119;-71
2023/02/02 02:36:40;;;;;;;1.05;0.80;;;;;;;20.73;33.56;101831.19;5058128;28;20041;-71
2023/02/02 02:39:18;;;;;;;1.35;1.25;;;;;;;20.62;33.77;101836.78;5056825;28;20044;-71
2023/02/02 02:41:48;;;;;;;0.70;0.70;;;;;;;20.69;33.63;101832.53;5056528;28;20082;-71
2023/02/02 02:44:18;;;;;;;1.00;0.90;;;;;;;20.72;33.67;101832.19;5058266;28;20060;-71
2023/02/02 02:46:44;;;;;;;1.47;0.93;;;;;;;20.70;33.66;101835.00;5055009;28;20941;-71
2023/02/02 02:49:11;;;;;;;1.13;0.75;;;;;;;20.72;33.67;101837.50;5053664;28;20047;-70
2023/02/02 02:51:51;;;;;;;1.55;0.90;;;;;;;20.72;33.72;101843.59;5058618;28;20036;-71
2023/02/02 02:54:29;;;;;;;1.02;0.80;;;;;;;20.69;33.70;101853.69;5066592;28;20044;-71
2023/02/02 02:57:29;;;;;;;1.05;0.77;;;;;;;20.68;33.75;101847.56;5059094;28;20032;-69
2023/02/02 03:00:09;;;;;;;1.27;1.02;;;;;;;20.59;34.01;101852.97;5056003;28;20475;-69
2023/02/02 03:02:37;;;;;;;1.20;0.95;;;;;;;20.66;33.86;101854.03;5058612;28;20726;-69
2023/02/02 03:05:40;;;;;;;0.57;0.52;;;;;;;20.61;33.95;101853.66;5059722;28;20028;-69
2023/02/02 03:08:16;;;;;;;0.88;0.60;;;;;;;20.58;33.87;101854.81;5057673;28;20559;-69
2023/02/02 03:10:44;;;;;;;0.85;0.77;;;;;;;20.57;33.79;101858.44;5056230;28;20094;-69
2023/02/02 03:13:12;;;;;;;1.30;0.93;;;;;;;20.62;33.87;101860.59;5056001;28;20151;-69
2023/02/02 03:15:43;;;;;;;1.00;0.90;;;;;;;20.48;33.83;101843.53;5053733;28;20047;-69
2023/02/02 03:18:08;;;;;;;0.77;0.70;;;;;;;20.70;33.72;101861.47;5054412;28;20036;-69
2023/02/02 03:20:34;;;;;;;1.17;0.82;;;;;;;20.65;33.56;101857.66;5058815;28;20858;-69
2023/02/02 03:23:00;;;;;;;1.05;0.85;;;;;;;20.59;33.88;101864.41;5058461;28;20748;-69
2023/02/02 03:25:25;;;;;;;0.73;0.73;;;;;;;20.50;34.06;101866.19;5056899;28;20706;-69
2023/02/02 03:27:52;;;;;;;1.40;1.08;;;;;;;20.58;33.87;101867.22;5060241;28;20097;-69
2023/02/02 03:30:18;;;;;;;1.35;0.90;;;;;;;20.52;33.82;101853.63;5057931;28;20036;-69
2023/02/02 03:32:44;;;;;;;1.05;0.80;;;;;;;20.59;33.87;101853.81;5059418;28;20723;-69
2023/02/02 03:35:10;;;;;;;0.80;0.80;;;;;;;20.61;33.88;101854.47;5056003;28;20498;-69
2023/02/02 03:37:35;;;;;;;0.73;0.65;;;;;;;20.61;33.83;101849.19;5056612;28;20047;-69
2023/02/02 03:40:01;;;;;;;1.30;0.77;;;;;;;20.56;33.78;101854.13;5055331;28;20520;-69
2023/02/02 03:42:26;;;;;;;1.05;0.90;;;;;;;20.56;33.92;101855.97;5053745;28;20056;-69
2023/02/02 03:44:52;;;;;;;0.82;0.82;;;;;;;20.61;33.78;101856.28;5058730;28;20071;-69
2023/02/02 03:47:17;;;;;;;0.85;0.68;;;;;;;20.47;34.09;101868.34;5058106;28;20028;-69
2023/02/02 03:49:42;;;;;;;0.80;0.70;;;;;;;20.55;33.94;101868.34;5056702;28;20040;-69
2023/02/02 03:52:08;;;;;;;1.00;0.68;;;;;;;20.53;33.93;101870.34;5057991;28;20039;-69
2023/02/02 03:54:33;;;;;;;0.95;0.70;;;;;;;20.46;34.21;101869.28;5058720;28;20049;-69
2023/02/02 03:56:59;;;;;;;0.80;0.57;;;;;;;20.49;34.10;101876.94;5060642;28;20044;-69
2023/02/02 03:59:25;;;;;;;0.93;0.70;;;;;;;20.54;34.11;101868.53;5057452;28;20425;-69
2023/02/02 04:01:50;;;;;;;1.15;0.65;;;;;;;20.48;34.23;101877.94;5055113;28;20844;-69
2023/02/02 04:04:16;;;;;;;1.17;0.90;;;;;;;20.47;34.00;101876.28;5057528;28;20082;-69
2023/02/02 04:06:41;;;;;;;0.82;0.65;;;;;;;20.47;34.12;101886.84;5056786;28;20037;-69
2023/02/02 04:09:07;;;;;;;1.63;0.90;;;;;;;20.50;33.91;101886.53;5056152;28;20118;-69
2023/02/02 04:11:32;;;;;;;1.02;0.85;;;;;;;20.59;33.93;101885.56;5059805;28;20037;-69
2023/02/02 04:13:58;;;;;;;0.68;0.57;;;;;;;20.58;33.90;101891.84;5054201;28;20074;-69
2023/02/02 04:16:23;;;;;;;0.85;0.77;;;;;;;20.50;34.05;101887.38;5058786;28;20449;-69
2023/02/02 04:18:49;;;;;;;0.60;0.52;;;;;;;20.52;34.08;101887.19;5052106;28;20064;-69
2023/02/02 04:21:14;;;;;;;0.70;0.70;;;;;;;20.51;34.11;101891.66;5054727;28;20052;-69
2023/02/02 04:23:40;;;;;;;0.65;0.57;;;;;;;20.44;34.13;101892.44;5054977;28;20044;-69
2023/02/02 04:26:06;;;;;;;0.85;0.77;;;;;;;20.54;34.03;101884.41;5058743;28;20048;-69
2023/02/02 04:28:31;;;;;;;1.30;0.90;;;;;;;20.47;34.12;101889.50;5055028;28;20044;-69
2023/02/02 04:30:57;;;;;;;0.80;0.80;;;;;;;20.46;34.01;101896.59;5057781;28;20044;-70
2023/02/02 04:33:24;;;;;;;0.82;0.70;;;;;;;20.43;34.13;101898.72;5056306;28;20060;-69
2023/02/02 04:35:49;;;;;;;1.30;0.82;;;;;;;20.47;34.09;101892.97;5059837;28;20079;-69
2023/02/02 04:38:15;;;;;;;0.93;0.50;;;;;;;20.42;34.10;101900.53;5056299;28;20036;-69
2023/02/02 04:40:42;;;;;;;0.82;0.65;;;;;;;20.44;33.99;101903.03;5062283;28;20033;-69
2023/02/02 04:43:08;;;;;;;0.65;0.60;;;;;;;20.49;33.79;101906.88;5060968;28;20167;-69
2023/02/02 04:45:34;;;;;;;0.80;0.70;;;;;;;20.48;33.73;101899.94;5060967;28;20377;-69
2023/02/02 04:47:59;;;;;;;0.95;0.60;;;;;;;20.43;34.00;101907.47;5057838;28;20056;-69
2023/02/02 04:50:25;;;;;;;0.90;0.65;;;;;;;20.39;33.97;101900.00;5063092;28;20045;-69
2023/02/02 04:52:50;;;;;;;1.30;0.68;;;;;;;20.44;33.99;101905.66;5057678;28;20052;-69
2023/02/02 04:55:16;;;;;;;1.75;0.63;;;;;;;20.46;33.88;101914.28;5062189;28;20091;-69
2023/02/02 04:57:42;;;;;;;1.10;0.82;;;;;;;20.43;33.93;101907.47;5058156;28;21157;-69
2023/02/02 05:00:10;;;;;;;0.90;0.60;;;;;;;20.42;33.86;101902.34;5060375;28;20040;-69
2023/02/02 05:02:36;;;;;;;0.75;0.75;;;;;;;20.45;33.91;101908.16;5058286;28;20581;-69
2023/02/02 05:05:02;;;;;;;0.93;0.60;;;;;;;20.39;34.11;101910.56;5063029;28;20036;-69
2023/02/02 05:07:29;;;;;;;0.60;0.60;;;;;;;20.40;33.95;101905.13;5058312;28;20044;-69
2023/02/02 05:09:54;;;;;;;0.82;0.50;;;;;;;20.41;34.06;101909.47;5059390;28;20174;-69
2023/02/02 05:12:20;;;;;;;0.60;0.60;;;;;;;20.39;34.10;101915.88;5060422;28;20462;-69
2023/02/02 05:14:45;;;;;;;0.52;0.52;;;;;;;20.32;34.22;101913.03;5061060;28;20052;-70
2023/02/02 05:17:11;;;;;;;0.80;0.57;;;;;;;20.37;34.17;101912.56;5058594;28;20041;-69
2023/02/02 05:19:36;;;;;;;0.60;0.57;;;;;;;20.36;34.22;101908.25;5059616;28;20036;-70
2023/02/02 05:22:02;;;;;;;0.82;0.57;;;;;;;20.39;34.04;101915.88;5054055;28;20048;-70
2023/02/02 05:24:27;;;;;;;0.68;0.65;;;;;;;20.42;34.00;101921.69;5059123;28;20039;-70
2023/02/02 05:26:57;;;;;;;0.52;0.52;;;;;;;20.42;34.03;101918.22;5059162;28;21789;-70
2023/02/02 05:29:23;;;;;;;0.75;0.60;;;;;;;20.43;34.01;101917.25;5057793;28;20096;-70
2023/02/02 05:31:48;;;;;;;0.45;0.45;;;;;;;20.50;33.86;101918.28;5058066;28;20066;-70
2023/02/02 05:34:14;;;;;;;0.63;0.40;;;;;;;20.41;33.96;101920.03;5059457;28;20040;-70
2023/02/02 05:36:40;;;;;;;0.90;0.63;;;;;;;20.37;34.08;101913.38;5055033;28;21250;-70
2023/02/02 05:39:05;;;;;;;0.80;0.40;;;;;;;20.39;34.00;101913.22;5054812;28;20579;-70
2023/02/02 05:41:31;;;;;;;0.47;0.32;;;;;;;20.31;34.23;101907.91;5056249;28;20040;-70
2023/02/02 05:43:59;;;;;;;0.60;0.40;;;;;;;20.38;34.15;101914.22;5056979;28;20590;-70
2023/02/02 05:46:25;;;;;;;0.45;0.35;;;;;;;20.35;34.05;101910.06;5057651;28;20033;-70
2023/02/02 05:48:50;;;;;;;0.22;0.22;;;;;;;20.39;33.94;101919.34;5057856;28;20043;-70
2023/02/02 05:51:22;;;;;;;0.43;0.40;;;;;;;20.31;34.17;101919.31;5038873;28;20053;-70
2023/02/02 05:53:48;;;;;;;0.28;0.25;;;;;;;20.41;34.05;101922.69;5055717;28;20041;-70
2023/02/02 05:56:14;;;;;;;0.40;0.30;;;;;;;20.34;34.09;101926.94;5059133;28;20083;-70
2023/02/02 05:58:41;;;;;;;0.40;0.40;;;;;;;20.38;34.12;101933.56;5058574;28;20060;-70
2023/02/02 06:01:07;;;;;;;0.70;0.70;;;;;;;20.39;34.06;101929.09;5055795;28;20049;-70
2023/02/02 06:03:33;;;;;;;0.45;0.43;;;;;;;20.30;34.16;101933.53;5058042;28;20036;-70
2023/02/02 06:05:58;;;;;;;0.30;0.30;;;;;;;20.35;34.05;101928.59;5058433;28;20066;-69
2023/02/02 06:08:24;;;;;;;0.55;0.35;;;;;;;20.29;34.18;101933.66;5058168;28;20063;-70
2023/02/02 06:10:49;;;;;;;0.70;0.30;;;;;;;20.25;34.29;101933.13;5058608;28;20445;-70
2023/02/02 06:13:15;;;;;;;0.30;0.30;;;;;;;20.27;34.21;101930.34;5059527;28;20060;-70
2023/02/02 06:15:42;;;;;;;0.50;0.47;;;;;;;20.28;34.12;101929.34;5058698;28;20044;-69
2023/02/02 06:18:07;;;;;;;0.30;0.30;;;;;;;20.24;34.28;101926.19;5058379;28;20082;-70
2023/02/02 06:20:33;;;;;;;0.32;0.32;;;;;;;20.32;34.09;101928.91;5053187;28;20040;-70
2023/02/02 06:22:59;;;;;;;0.38;0.35;;;;;;;20.22;34.15;101926.34;5057912;28;20106;-70
2023/02/02 06:25:24;;;;;;;0.57;0.57;;;;;;;20.20;34.28;101933.63;5056453;28;20120;-69
2023/02/02 06:27:54;;;;;;;0.43;0.30;;;;;;;20.35;34.23;101941.00;5059030;28;20044;-70
2023/02/02 06:30:20;;;;;;;0.28;0.25;;;;;;;20.25;34.25;101927.84;5059347;28;20048;-70
2023/02/02 06:32:46;;;;;;;0.15;0.15;;;;;;;20.33;34.17;101938.50;5059621;28;20048;-70
2023/02/02 06:35:11;;;;;;;0.40;0.40;;;;;;;20.16;34.48;101942.84;5054768;28;20032;-70
2023/02/02 06:37:38;;;;;;;0.32;0.20;;;;;;;20.26;34.32;101944.56;5055703;28;20471;-70
2023/02/02 06:40:05;;;;;;;0.95;0.52;;;;;;;20.24;34.29;101944.72;5054334;28;21792;-70
2023/02/02 06:42:31;;;;;;;0.28;0.28;;;;;;;20.37;34.28;101949.59;5057987;28;20075;-69
2023/02/02 06:44:56;;;;;;;0.38;0.38;;;;;;;20.60;33.96;101957.84;5055719;28;20036;-70
2023/02/02 06:47:22;;;;;;;0.43;0.22;;;;;;;21.98;31.88;101947.63;5057934;28;20528;-70
2023/02/02 06:49:47;;;;;;;0.30;0.30;;;;;;;23.08;30.55;101954.00;5053690;28;20056;-70
2023/02/02 06:52:13;;;;;;;0.35;0.35;;;;;;;23.59;29.55;101954.38;5057714;28;20028;-70
2023/02/02 06:54:38;;;;;;;0.30;0.30;;;;;;;23.46;29.82;101960.25;5058363;28;20048;-69
2023/02/02 06:57:04;;;;;;;0.25;0.25;;;;;;;23.27;29.87;101963.34;5058638;28;20597;-70
2023/02/02 06:59:29;;;;;;;0.47;0.30;;;;;;;22.94;30.52;101970.66;5055986;28;20043;-70
2023/02/02 07:01:55;;;;;;;0.40;0.30;;;;;;;22.64;31.14;101973.06;5056499;28;20502;-70
2023/02/02 07:04:20;;;;;;;0.30;0.30;;;;;;;22.42;31.34;101971.13;5053885;28;20055;-70
2023/02/02 07:06:46;;;;;;;0.10;0.10;;;;;;;22.30;31.86;101978.63;5058631;28;20095;-70
2023/02/02 07:09:11;;;;;;;0.45;0.30;;;;;;;22.12;32.05;101986.78;5062100;28;20040;-70
2023/02/02 07:11:37;;;;;;;0.28;0.20;;;;;;;22.02;32.12;101980.75;5057046;28;20075;-70
2023/02/02 07:14:03;;;;;;;0.30;0.25;;;;;;;21.88;32.93;101984.06;5052504;28;20061;-70
2023/02/02 07:16:29;;;;;;;0.35;0.35;;;;;;;21.67;32.87;101993.34;5058732;28;20649;-70
2023/02/02 07:18:55;;;;;;;0.30;0.28;;;;;;;21.52;33.14;101989.66;5057487;28;20036;-70
2023/02/02 07:21:23;;;;;;;0.55;0.45;;;;;;;21.38;33.56;101991.16;5057786;28;20094;-70
2023/02/02 07:23:49;;;;;;;0.40;0.40;;;;;;;21.36;33.82;101995.78;5062625;28;20055;-70
2023/02/02 07:26:15;;;;;;;0.47;0.30;;;;;;;21.33;33.60;102009.31;5064721;28;20044;-69
2023/02/02 07:28:41;;;;;;;0.30;0.30;;;;;;;21.22;34.06;102012.25;5062718;28;20049;-70
2023/02/02 07:31:18;;;;;;;0.22;0.22;;;;;;;21.21;34.23;102009.78;5056063;28;20043;-70
2023/02/02 07:33:44;;;;;;;0.38;0.20;;;;;;;21.15;33.92;102005.09;5054697;28;20171;-70
2023/02/02 07:36:11;;;;;;;0.88;0.30;;;;;;;21.07;34.12;102019.97;5055780;28;20047;-70
2023/02/02 07:38:37;;;;;;;0.15;0.10;;;;;;;21.11;33.99;102015.19;5055335;28;20045;-70
2023/02/02 07:41:03;;;;;;;0.15;0.15;;;;;;;21.06;34.11;102020.97;5054043;28;20097;-70
2023/02/02 07:43:29;;;;;;;0.52;0.30;;;;;;;21.13;34.07;102024.63;5056605;28;20032;-70
2023/02/02 07:46:02;;;;;;;0.28;0.28;;;;;;;21.13;33.91;102021.97;5048983;28;20044;-71
2023/02/02 07:48:31;;;;;;;0.20;0.20;;;;;;;21.18;33.90;102024.13;5054671;28;20051;-69
2023/02/02 07:51:04;;;;;;;1.15;0.22;;;;;;;21.17;34.20;102026.94;5053241;28;20442;-70
2023/02/02 07:53:30;;;;;;;0.32;0.30;;;;;;;21.19;34.04;102025.81;5054048;28;20529;-69
2023/02/02 07:56:19;;;;;;;0.28;0.28;;;;;;;21.15;34.11;102028.94;5050433;28;20078;-70
2023/02/02 07:58:45;;;;;;;0.20;0.17;;;;;;;21.15;33.95;102036.88;5052217;28;20039;-70
2023/02/02 08:01:14;;;;;;;0.17;0.17;;;;;;;21.06;34.08;102039.50;5055371;28;20051;-70
2023/02/02 08:03:41;;;;;;;0.35;0.28;;;;;;;21.04;34.09;102036.19;5055369;28;20577;-70
2023/02/02 08:06:17;;;;;;;0.93;0.40;;;;;;;21.05;34.32;102051.09;5048690;28;20060;-70
2023/02/02 08:08:42;;;;;;;0.32;0.30;;;;;;;21.01;34.12;102056.88;5057005;28;20133;-70
2023/02/02 08:11:10;;;;;;;0.10;0.10;;;;;;;21.00;34.27;102050.72;5064309;28;20807;-70
2023/02/02 08:13:36;;;;;;;0.08;0.08;;;;;;;21.03;34.03;102046.94;5058992;28;20053;-70
2023/02/02 08:16:02;;;;;;;0.13;0.10;;;;;;;21.13;33.92;102051.13;5064626;28;20450;-69
2023/02/02 08:18:28;;;;;;;0.22;0.22;;;;;;;21.20;33.97;102051.31;5060780;28;20139;-70
2023/02/02 08:20:57;;;;;;;0.40;0.20;;;;;;;21.49;33.34;102050.94;5052270;28;20881;-70
2023/02/02 08:23:22;;;;;;;0.60;0.38;;;;;;;21.49;33.60;102064.19;5059350;28;20044;-70
2023/02/02 08:25:52;;;;;;;0.20;0.20;;;;;;;21.32;33.78;102065.97;5062863;28;20048;-69
2023/02/02 08:28:17;;;;;;;0.40;0.30;;;;;;;21.30;33.80;102065.28;5062906;28;20040;-69
2023/02/02 08:30:43;;;;;;;0.20;0.20;;;;;;;21.18;33.97;102066.53;5055878;28;20036;-69
2023/02/02 08:33:08;;;;;;;0.32;0.30;;;;;;;21.23;33.96;102076.66;5060810;28;20051;-70
2023/02/02 08:35:34;;;;;;;0.28;0.20;;;;;;;21.25;33.89;102078.19;5061680;28;20052;-70
2023/02/02 08:38:04;;;;;;;0.28;0.22;;;;;;;21.29;34.02;102076.88;5062024;28;20041;-70
2023/02/02 08:40:29;;;;;;;0.35;0.28;;;;;;;21.21;33.92;102082.13;5058574;28;20051;-70
2023/02/02 08:42:55;;;;;;;0.40;0.30;;;;;;;21.13;33.99;102082.91;5059888;28;20036;-70
2023/02/02 08:45:20;;;;;;;1.60;0.38;;;;;;;21.24;34.23;102088.91;5059569;28;20087;-70
2023/02/02 08:47:46;;;;;;;0.40;0.22;;;;;;;21.26;34.09;102093.09;5054968;28;20040;-69
2023/02/02 08:50:11;;;;;;;0.30;0.30;;;;;;;21.30;33.76;102090.97;5057471;28;20490;-69
2023/02/02 08:52:37;;;;;;;0.30;0.30;;;;;;;21.28;33.82;102093.75;5053050;28;20041;-69
2023/02/02 08:55:03;;;;;;;0.40;0.40;;;;;;;21.34;33.78;102087.81;5057764;28;20552;-69
2023/02/02 08:57:31;;;;;;;0.50;0.17;;;;;;;21.35;33.67;102093.94;5057856;28;20036;-70
2023/02/02 08:59:57;;;;;;;0.20;0.20;;;;;;;21.33;33.67;102109.19;5065645;28;20036;-70
2023/02/02 09:02:23;;;;;;;0.20;0.20;;;;;;;21.26;34.03;102116.13;5058128;28;20036;-70
2023/02/02 09:04:48;;;;;;;0.40;0.30;;;;;;;21.19;34.24;102112.41;5056468;28;20047;-70
2023/02/02 09:07:14;;;;;;;0.20;0.20;;;;;;;21.18;34.10;102119.50;5058946;28;20047;-70
2023/02/02 09:09:39;;;;;;;0.20;0.20;;;;;;;21.20;33.85;102122.84;5059259;28;20045;-71
2023/02/02 09:12:05;;;;;;;0.40;0.30;;;;;;;21.13;34.03;102108.56;5060621;28;20090;-70
2023/02/02 09:14:30;;;;;;;0.30;0.30;;;;;;;21.11;34.14;102110.53;5060558;28;20533;-70
2023/02/02 09:16:56;;;;;;;0.30;0.20;;;;;;;21.12;34.15;102125.44;5056915;28;20055;-69
2023/02/02 09:19:21;;;;;;;0.17;0.17;;;;;;;21.07;34.00;102125.91;5058745;28;20028;-70
2023/02/02 09:21:50;;;;;;;0.20;0.20;;;;;;;21.07;34.11;102133.03;5054103;28;20049;-70
2023/02/02 09:24:16;;;;;;;0.30;0.13;;;;;;;21.09;34.25;102131.88;5059171;28;20048;-69
2023/02/02 09:26:42;;;;;;;0.10;0.10;;;;;;;21.09;33.97;102128.41;5054009;28;20047;-70
2023/02/02 09:29:11;;;;;;;0.28;0.28;;;;;;;21.09;34.21;102131.88;5055479;28;20043;-70
2023/02/02 09:31:40;;;;;;;0.40;0.40;;;;;;;21.06;33.96;102132.19;5056785;28;20028;-69
2023/02/02 09:34:09;;;;;;;0.38;0.32;;;;;;;21.07;34.09;102136.50;5054906;28;20896;-69
2023/02/02 09:36:35;;;;;;;0.20;0.20;;;;;;;21.07;34.10;102136.50;5059323;28;20045;-70
2023/02/02 09:39:01;;;;;;;0.20;0.20;;;;;;;21.01;34.33;102141.59;5062279;28;20040;-70
2023/02/02 09:41:36;;;;;;;0.20;0.20;;;;;;;21.01;34.16;102139.78;5057868;28;20040;-70
2023/02/02 09:44:09;;;;;;;0.43;0.20;;;;;;;20.98;34.34;102148.03;5060840;28;20043;-70
2023/02/02 09:46:49;;;;;;;0.55;0.38;;;;;;;21.01;34.14;102150.38;5058773;28;20040;-70
2023/02/02 09:49:23;;;;;;;0.10;0.10;;;;;;;21.02;34.12;102154.69;5060486;28;20044;-70
2023/02/02 09:51:56;;;;;;;0.10;0.10;;;;;;;21.01;34.14;102162.78;5057389;28;20029;-70
2023/02/02 09:54:32;;;;;;;0.00;0.00;;;;;;;20.96;34.14;102162.41;5058706;28;20123;-70
2023/02/02 09:57:03;;;;;;;0.28;0.28;;;;;;;20.95;34.05;102161.56;5062903;28;20056;-70
2023/02/02 09:59:34;;;;;;;0.28;0.20;;;;;;;20.97;34.40;102164.06;5053732;28;20055;-70
2023/02/02 10:02:15;;;;;;;0.20;0.10;;;;;;;20.92;34.22;102166.34;5063562;28;20131;-70
2023/02/02 10:04:45;;;;;;;0.30;0.30;;;;;;;20.85;34.27;102165.31;5071493;28;20045;-70
2023/02/02 10:07:17;;;;;;;0.10;0.10;;;;;;;20.89;34.30;102161.38;5063245;28;20391;-70
2023/02/02 10:10:01;;;;;;;0.20;0.20;;;;;;;20.90;34.41;102169.16;5067160;28;20038;-70
2023/02/02 10:12:26;;;;;;;0.20;0.20;;;;;;;20.86;34.24;102170.47;5060982;28;20081;-70
2023/02/02 10:15:16;;;;;;;0.20;0.20;;;;;;;20.79;34.34;102164.94;5061332;28;20040;-70
2023/02/02 10:17:56;;;;;;;0.20;0.20;;;;;;;20.79;35.04;102182.63;5063176;28;20044;-70
2023/02/02 10:20:35;;;;;;;0.20;0.15;;;;;;;20.85;34.37;102173.25;5058893;28;20044;-70
2023/02/02 10:23:14;;;;;;;0.00;0.00;;;;;;;20.85;34.31;102174.09;5063393;28;20044;-69
2023/02/02 10:25:46;;;;;;;0.20;0.20;;;;;;;20.86;34.61;102180.22;5060269;28;20040;-70
2023/02/02 10:28:40;;;;;;;0.10;0.10;;;;;;;20.82;34.34;102179.66;5058025;28;20062;-70
2023/02/02 10:31:30;;;;;;;0.32;0.30;;;;;;;20.79;34.49;102191.41;5061942;28;20041;-70
2023/02/02 10:34:08;;;;;;;0.45;0.43;;;;;;;20.79;34.42;102194.06;5056751;28;20055;-70
2023/02/02 10:36:39;;;;;;;0.20;0.20;;;;;;;20.79;34.43;102190.56;5063919;28;20047;-69
2023/02/02 10:39:12;;;;;;;0.10;0.10;;;;;;;20.77;34.59;102188.09;5061651;28;20382;-69
2023/02/02 10:41:59;;;;;;;0.28;0.28;;;;;;;20.81;34.54;102192.06;5060108;28;20051;-69
2023/02/02 10:44:51;;;;;;;0.25;0.20;;;;;;;20.80;34.57;102195.72;5058683;28;20040;-69
2023/02/02 10:47:28;;;;;;;0.43;0.30;;;;;;;20.81;34.42;102196.53;5047355;28;20052;-70
2023/02/02 10:50:06;;;;;;;0.10;0.10;;;;;;;20.76;34.52;102197.00;5061735;28;20033;-70
2023/02/02 10:52:33;;;;;;;0.30;0.20;;;;;;;20.72;34.40;102200.94;5061335;28;20070;-70
2023/02/02 10:55:19;;;;;;;0.55;0.45;;;;;;;20.74;34.54;102203.44;5060469;28;20047;-70
2023/02/02 10:58:10;;;;;;;0.28;0.28;;;;;;;20.69;34.65;102206.56;5060302;28;20045;-70
2023/02/02 11:00:45;;;;;;;0.15;0.15;;;;;;;20.76;34.66;102204.13;5059560;28;20055;-70
2023/02/02 11:03:13;;;;;;;0.30;0.30;;;;;;;20.72;34.50;102211.53;5059321;28;20079;-70
2023/02/02 11:08:51;;;;;;;0.32;0.20;;;;;;;20.68;34.64;102223.44;5056452;28;20040;-70
2023/02/02 11:11:23;;;;;;;0.15;0.15;;;;;;;20.66;34.75;102220.09;5062194;28;20089;-70
2023/02/02 11:13:54;;;;;;;0.20;0.20;;;;;;;20.60;34.79;102230.44;5057954;28;20041;-70
2023/02/02 11:16:31;;;;;;;0.17;0.15;;;;;;;20.67;34.56;102224.41;5057762;28;20044;-70
2023/02/02 11:18:57;;;;;;;0.30;0.30;;;;;;;20.65;34.50;102218.44;5059865;28;20032;-69
2023/02/02 11:21:32;;;;;;;0.20;0.20;;;;;;;20.71;34.62;102228.41;5060509;28;20885;-70
2023/02/02 11:24:18;;;;;;;0.30;0.20;;;;;;;20.65;34.61;102238.78;5064186;28;20032;-70
2023/02/02 11:26:51;;;;;;;0.20;0.20;;;;;;;20.61;34.71;102230.28;5060215;28;20032;-70
2023/02/02 11:29:29;;;;;;;0.20;0.20;;;;;;;20.61;34.73;102240.03;5057451;28;20040;-70
2023/02/02 11:31:55;;;;;;;0.08;0.08;;;;;;;20.65;34.59;102238.78;5063244;28;20375;-70
2023/02/02 11:34:26;;;;;;;0.32;0.13;;;;;;;20.59;34.62;102239.38;5058333;28;20052;-70
2023/02/02 11:37:13;;;;;;;0.20;0.20;;;;;;;20.61;34.70;102245.34;5061306;28;20067;-70
2023/02/02 11:39:40;;;;;;;0.10;0.10;;;;;;;20.61;34.71;102242.69;5057648;28;20028;-70
2023/02/02 11:42:19;;;;;;;0.50;0.50;;;;;;;20.62;34.66;102241.69;5059714;28;20040;-70
2023/02/02 11:44:49;;;;;;;0.38;0.30;;;;;;;20.54;34.79;102241.63;5057069;28;20075;-70
2023/02/02 11:47:30;;;;;;;0.30;0.30;;;;;;;20.56;34.87;102237.03;5062172;28;20599;-69